Time;durP1;ratioP1;P1;durP2;ratioP2;P2;SDS_P1;SDS_P2;PMS_P1;PMS_P2;Temp;Humidity;BMP_temperature;BMP_pressure;BME280_temperature;BME280_humidity;BME280_pressure;Samples;Min_cycle;Max_cycle;Signal;HPM_P1;HPM_P2
2023/03/17 00:01:34;;;;;;;6.07;2.22;;;8.00;99.90;;;;;;6242141;23;20028;-86
2023/03/17 00:04:00;;;;;;;3.90;1.67;;;7.90;99.90;;;;;;6242784;23;20048;-85
2023/03/17 00:06:30;;;;;;;5.53;1.92;;;7.90;99.90;;;;;;6242375;23;20343;-86
2023/03/17 00:08:57;;;;;;;5.03;1.83;;;7.90;99.90;;;;;;6244668;22;20003;-85
2023/03/17 00:11:23;;;;;;;6.88;1.60;;;7.80;99.90;;;;;;6242178;23;20095;-85
2023/03/17 00:13:49;;;;;;;6.25;1.70;;;7.80;99.90;;;;;;6244099;22;20004;-85
2023/03/17 00:16:25;;;;;;;3.90;1.48;;;7.80;99.90;;;;;;6242424;23;20561;-85
2023/03/17 00:18:52;;;;;;;5.03;1.65;;;7.70;99.90;;;;;;6242488;23;20007;-85
2023/03/17 00:21:28;;;;;;;5.03;1.70;;;7.70;99.90;;;;;;6242158;23;20095;-86
2023/03/17 00:23:55;;;;;;;4.15;1.52;;;7.70;99.90;;;;;;6242843;23;20004;-85
2023/03/17 00:26:20;;;;;;;5.38;2.13;;;7.70;99.90;;;;;;6241326;23;20096;-85
2023/03/17 00:28:46;;;;;;;3.67;1.50;;;7.70;99.90;;;;;;6242015;23;20420;-85
2023/03/17 00:31:24;;;;;;;4.47;1.42;;;7.70;99.90;;;;;;6242444;23;20012;-85
2023/03/17 00:33:51;;;;;;;6.68;2.13;;;7.60;99.90;;;;;;6242547;23;20061;-86
2023/03/17 00:36:21;;;;;;;3.78;1.50;;;7.60;99.90;;;;;;6242142;23;20094;-86
2023/03/17 00:38:47;;;;;;;4.10;1.40;;;7.70;99.90;;;;;;6242685;23;20054;-85
2023/03/17 00:41:13;;;;;;;3.65;1.20;;;7.60;99.90;;;;;;6241574;23;20443;-85
2023/03/17 00:43:39;;;;;;;4.35;1.30;;;7.60;99.90;;;;;;6242581;23;20032;-85
2023/03/17 00:46:27;;;;;;;2.85;1.15;;;7.60;99.90;;;;;;6242390;23;20043;-85
2023/03/17 00:48:53;;;;;;;6.40;1.00;;;7.60;99.90;;;;;;6242981;23;20012;-85
2023/03/17 00:51:18;;;;;;;4.72;1.40;;;7.60;99.90;;;;;;6242368;23;20142;-85
2023/03/17 00:53:44;;;;;;;4.95;1.15;;;7.50;99.90;;;;;;6242324;23;20000;-85
2023/03/17 00:56:18;;;;;;;4.60;1.20;;;7.50;99.90;;;;;;6242098;23;20012;-85
2023/03/17 00:58:44;;;;;;;3.38;1.50;;;7.50;99.90;;;;;;6242421;23;20437;-85
2023/03/17 01:01:10;;;;;;;2.00;1.00;;;7.50;99.90;;;;;;6243043;23;20039;-86
2023/03/17 01:03:36;;;;;;;1.98;0.90;;;7.50;99.90;;;;;;6244060;23;20023;-85
2023/03/17 01:06:04;;;;;;;3.35;1.23;;;7.50;99.90;;;;;;6244251;23;20039;-85
2023/03/17 01:08:30;;;;;;;2.80;1.10;;;7.40;99.90;;;;;;6244025;22;20057;-85
2023/03/17 01:10:56;;;;;;;3.10;1.13;;;7.40;99.90;;;;;;6244175;23;20090;-85
2023/03/17 01:13:22;;;;;;;2.88;1.20;;;7.40;99.90;;;;;;6243376;23;20026;-85
2023/03/17 01:15:49;;;;;;;2.40;1.10;;;7.50;99.90;;;;;;6244690;23;20028;-85
2023/03/17 01:18:17;;;;;;;5.95;1.13;;;7.50;99.90;;;;;;6243589;23;20004;-86
2023/03/17 01:20:42;;;;;;;5.40;0.98;;;7.50;99.90;;;;;;6244105;23;20000;-85
2023/03/17 01:23:10;;;;;;;6.28;1.30;;;7.50;99.90;;;;;;6243444;23;20008;-85
2023/03/17 01:25:37;;;;;;;2.35;1.15;;;7.50;99.90;;;;;;6243636;23;20012;-85
2023/03/17 01:28:03;;;;;;;3.45;1.20;;;7.50;99.90;;;;;;6243633;23;20026;-86
2023/03/17 01:30:36;;;;;;;3.92;1.00;;;7.50;99.90;;;;;;6243864;23;20008;-85
2023/03/17 01:33:02;;;;;;;3.70;1.40;;;7.40;99.90;;;;;;6243652;23;19997;-85
2023/03/17 01:35:29;;;;;;;2.90;1.02;;;7.40;99.90;;;;;;6244086;23;20000;-85
2023/03/17 01:37:56;;;;;;;3.00;1.08;;;7.40;99.90;;;;;;6243548;23;20000;-85
2023/03/17 01:40:31;;;;;;;3.33;1.35;;;7.40;99.90;;;;;;6243541;23;20083;-86
2023/03/17 01:43:07;;;;;;;3.10;1.15;;;7.30;99.90;;;;;;6243850;23;20015;-85
2023/03/17 01:46:10;;;;;;;4.82;1.15;;;7.30;99.90;;;;;;6244303;23;20019;-85
2023/03/17 01:48:41;;;;;;;4.57;1.40;;;7.30;99.90;;;;;;6243459;23;20381;-86
2023/03/17 01:51:10;;;;;;;5.38;1.30;;;7.20;99.90;;;;;;6243358;23;20000;-85
2023/03/17 01:53:37;;;;;;;5.32;2.08;;;7.20;99.90;;;;;;6243374;22;20047;-85
2023/03/17 01:56:03;;;;;;;5.47;1.48;;;7.20;99.90;;;;;;6245068;22;20411;-85
2023/03/17 01:58:30;;;;;;;4.10;1.45;;;7.20;99.90;;;;;;6243427;23;20087;-85
2023/03/17 02:00:56;;;;;;;4.63;1.88;;;7.20;99.90;;;;;;6245635;22;20335;-85
2023/03/17 02:03:22;;;;;;;6.32;1.40;;;7.20;99.90;;;;;;6243073;23;20004;-85
2023/03/17 02:05:51;;;;;;;4.03;1.23;;;7.20;99.90;;;;;;6243892;23;20118;-85
2023/03/17 02:08:17;;;;;;;5.82;1.60;;;7.20;99.90;;;;;;6242125;23;20099;-85
2023/03/17 02:10:44;;;;;;;3.83;1.15;;;7.20;99.90;;;;;;6243528;23;20366;-85
2023/03/17 02:13:12;;;;;;;3.00;1.13;;;7.20;99.90;;;;;;6243069;23;20099;-86
2023/03/17 02:15:50;;;;;;;5.60;1.30;;;7.20;99.90;;;;;;6243584;23;20008;-86
2023/03/17 02:18:18;;;;;;;3.25;0.90;;;7.20;99.90;;;;;;6242762;23;20008;-86
2023/03/17 02:20:46;;;;;;;3.30;1.17;;;7.10;99.90;;;;;;6243504;23;20062;-85
2023/03/17 02:23:15;;;;;;;2.30;1.15;;;7.10;99.90;;;;;;6242950;23;20054;-85
2023/03/17 02:25:44;;;;;;;2.60;1.15;;;7.10;99.90;;;;;;6243418;23;20516;-85
2023/03/17 02:28:15;;;;;;;7.68;1.52;;;7.00;99.90;;;;;;6243248;23;20011;-85
2023/03/17 02:30:41;;;;;;;3.33;1.27;;;7.10;99.90;;;;;;6243644;23;20015;-86
2023/03/17 02:33:08;;;;;;;2.08;0.80;;;7.00;99.90;;;;;;6243554;23;20057;-85
2023/03/17 02:35:33;;;;;;;2.55;1.00;;;7.10;99.90;;;;;;6242996;23;20035;-85
2023/03/17 02:37:59;;;;;;;3.05;1.00;;;7.10;99.90;;;;;;6242743;23;20423;-85
2023/03/17 02:40:26;;;;;;;6.07;1.33;;;7.10;99.90;;;;;;6243755;23;20065;-86
2023/03/17 02:42:52;;;;;;;1.85;0.75;;;7.10;99.90;;;;;;6243454;23;20085;-85
2023/03/17 02:45:18;;;;;;;3.90;1.15;;;7.10;99.90;;;;;;6242472;23;20102;-85
2023/03/17 02:47:45;;;;;;;3.83;1.15;;;7.10;99.90;;;;;;6244669;22;20004;-85
2023/03/17 02:50:21;;;;;;;2.70;1.00;;;7.10;99.90;;;;;;6242700;23;20004;-85
2023/03/17 02:52:46;;;;;;;2.30;0.70;;;7.20;99.90;;;;;;6242643;22;20343;-85
2023/03/17 02:55:11;;;;;;;3.45;0.90;;;7.10;99.90;;;;;;6243321;23;20091;-85
2023/03/17 02:57:37;;;;;;;2.10;0.70;;;7.20;99.90;;;;;;6243243;23;20087;-86
2023/03/17 03:00:03;;;;;;;2.10;0.70;;;7.10;99.90;;;;;;6242885;23;20077;-85
2023/03/17 03:02:29;;;;;;;2.10;0.85;;;7.20;99.90;;;;;;6242610;23;20004;-85
2023/03/17 03:04:55;;;;;;;2.50;0.80;;;7.20;99.90;;;;;;6242248;23;20016;-85
2023/03/17 03:07:21;;;;;;;3.95;0.80;;;7.30;99.90;;;;;;6242959;23;20008;-86
2023/03/17 03:09:47;;;;;;;4.47;1.20;;;7.30;99.90;;;;;;6243706;23;20435;-86
2023/03/17 03:12:13;;;;;;;5.85;2.90;;;7.30;99.90;;;;;;6242862;23;20004;-85
2023/03/17 03:14:38;;;;;;;4.38;0.80;;;7.40;99.90;;;;;;6242904;23;20031;-85
2023/03/17 03:17:04;;;;;;;2.78;0.90;;;7.40;99.90;;;;;;6242127;22;20308;-85
2023/03/17 03:19:29;;;;;;;2.40;0.70;;;7.40;99.90;;;;;;6243177;23;20087;-86
2023/03/17 03:21:55;;;;;;;2.13;0.82;;;7.40;99.90;;;;;;6243286;23;19996;-86
2023/03/17 03:24:21;;;;;;;2.90;0.90;;;7.50;99.90;;;;;;6241830;23;20087;-86
2023/03/17 03:26:47;;;;;;;4.22;0.80;;;7.50;99.90;;;;;;6244459;22;20007;-85
2023/03/17 03:29:12;;;;;;;2.78;0.93;;;7.50;99.90;;;;;;6242737;23;20004;-85
2023/03/17 03:31:38;;;;;;;3.40;0.90;;;7.60;99.90;;;;;;6242509;23;20087;-85
2023/03/17 03:34:03;;;;;;;4.10;0.73;;;7.50;99.90;;;;;;6243435;23;20074;-86
2023/03/17 03:36:29;;;;;;;3.53;0.90;;;7.50;99.90;;;;;;6242623;23;20461;-86
2023/03/17 03:38:55;;;;;;;3.83;0.90;;;7.50;99.90;;;;;;6242554;23;20091;-85
2023/03/17 03:41:21;;;;;;;3.03;1.05;;;7.50;99.90;;;;;;6243605;22;20386;-85
2023/03/17 03:43:46;;;;;;;2.90;1.10;;;7.50;99.90;;;;;;6217203;23;20445;-86
2023/03/17 03:46:12;;;;;;;4.18;0.90;;;7.50;99.90;;;;;;6216331;23;20032;-86
2023/03/17 03:48:37;;;;;;;3.60;0.82;;;7.50;99.90;;;;;;6217777;23;20087;-85
2023/03/17 03:51:03;;;;;;;5.97;1.20;;;7.50;99.90;;;;;;6217344;23;20008;-85
2023/03/17 03:53:29;;;;;;;3.05;1.00;;;7.50;99.90;;;;;;6217383;23;20031;-85
2023/03/17 03:55:55;;;;;;;3.75;1.00;;;7.50;99.90;;;;;;6217432;23;20008;-85
2023/03/17 03:58:21;;;;;;;2.58;1.23;;;7.50;99.90;;;;;;6217120;23;20006;-86
2023/03/17 04:00:46;;;;;;;5.22;1.00;;;7.50;99.90;;;;;;6215088;23;20019;-85
2023/03/17 04:03:13;;;;;;;4.57;1.17;;;7.50;99.90;;;;;;6243878;23;20059;-86
2023/03/17 04:05:38;;;;;;;4.15;1.17;;;7.50;99.90;;;;;;6217228;23;20016;-85
2023/03/17 04:08:05;;;;;;;4.95;1.10;;;7.50;99.90;;;;;;6216874;23;19996;-85
2023/03/17 04:10:31;;;;;;;4.13;1.00;;;7.50;99.90;;;;;;6217012;22;20004;-85
2023/03/17 04:12:56;;;;;;;3.95;1.35;;;7.40;99.90;;;;;;6217186;23;20010;-85
2023/03/17 04:15:23;;;;;;;3.88;1.40;;;7.40;99.90;;;;;;6216504;23;20005;-85
2023/03/17 04:17:48;;;;;;;2.60;1.10;;;7.40;99.90;;;;;;6217220;23;20051;-85
2023/03/17 04:20:15;;;;;;;4.88;1.25;;;7.30;99.90;;;;;;6214604;23;20004;-85
2023/03/17 04:22:41;;;;;;;3.63;1.27;;;7.30;99.90;;;;;;6216931;23;20008;-85
2023/03/17 04:25:08;;;;;;;4.05;1.50;;;7.30;99.90;;;;;;6216593;23;20012;-85
2023/03/17 04:27:34;;;;;;;5.78;1.30;;;7.20;99.90;;;;;;6216595;23;20075;-85
2023/03/17 04:30:00;;;;;;;5.18;1.27;;;7.20;99.90;;;;;;6216056;23;20035;-85
2023/03/17 04:32:26;;;;;;;3.97;1.65;;;7.10;99.90;;;;;;6217044;23;20004;-85
2023/03/17 04:34:52;;;;;;;6.53;1.55;;;7.10;99.90;;;;;;6217452;23;20316;-85
2023/03/17 04:37:17;;;;;;;3.50;1.30;;;7.10;99.90;;;;;;6218547;23;20039;-85
2023/03/17 04:39:43;;;;;;;3.63;1.67;;;7.10;99.90;;;;;;6219329;23;20011;-85
2023/03/17 04:42:09;;;;;;;3.20;1.38;;;7.00;99.90;;;;;;6233477;23;20020;-85
2023/03/17 04:44:35;;;;;;;5.35;1.70;;;7.00;99.90;;;;;;6244615;23;20019;-84
2023/03/17 04:47:01;;;;;;;7.45;1.75;;;7.00;99.90;;;;;;6243989;23;20004;-85
2023/03/17 04:49:27;;;;;;;3.83;1.80;;;6.90;99.90;;;;;;6244654;23;20446;-85
2023/03/17 04:51:53;;;;;;;4.72;1.42;;;6.90;99.90;;;;;;6243958;23;20011;-85
2023/03/17 04:54:18;;;;;;;4.38;1.98;;;6.90;99.90;;;;;;6244192;23;20008;-85
2023/03/17 04:56:44;;;;;;;3.75;1.85;;;6.90;99.90;;;;;;6245898;23;20415;-85
2023/03/17 04:59:10;;;;;;;4.07;1.45;;;6.90;99.90;;;;;;6243706;23;20038;-86
2023/03/17 05:01:36;;;;;;;4.50;1.70;;;6.90;99.90;;;;;;6244253;23;20049;-85
2023/03/17 05:04:01;;;;;;;5.85;1.85;;;6.90;99.90;;;;;;6243811;23;20496;-85
2023/03/17 05:06:27;;;;;;;5.03;1.65;;;7.00;99.90;;;;;;6244116;23;20095;-85
2023/03/17 05:08:52;;;;;;;4.45;1.55;;;7.00;99.90;;;;;;6244461;23;20080;-85
2023/03/17 05:11:18;;;;;;;4.13;1.55;;;7.00;99.90;;;;;;6243651;23;20468;-85
2023/03/17 05:13:44;;;;;;;4.57;1.50;;;7.00;99.90;;;;;;6242184;23;20004;-86
2023/03/17 05:16:10;;;;;;;7.50;2.17;;;7.00;99.90;;;;;;6242837;23;20012;-86
2023/03/17 05:18:37;;;;;;;6.82;1.90;;;7.00;99.90;;;;;;6244122;23;20000;-86
2023/03/17 05:21:04;;;;;;;7.30;1.85;;;7.00;99.90;;;;;;6243470;22;20007;-85
2023/03/17 05:23:29;;;;;;;5.07;1.55;;;7.00;99.90;;;;;;6243213;23;20004;-86
2023/03/17 05:25:55;;;;;;;5.47;1.85;;;7.00;99.90;;;;;;6243073;22;20015;-85
2023/03/17 05:28:21;;;;;;;4.85;1.63;;;6.90;99.90;;;;;;6243001;23;20008;-85
2023/03/17 05:30:48;;;;;;;5.63;1.95;;;6.90;99.90;;;;;;6244305;22;20001;-85
2023/03/17 05:33:15;;;;;;;5.95;1.90;;;6.80;99.90;;;;;;6244158;23;20011;-85
2023/03/17 05:35:41;;;;;;;5.85;2.53;;;6.80;99.90;;;;;;6244165;23;20004;-85
2023/03/17 05:38:07;;;;;;;6.18;1.73;;;6.80;99.90;;;;;;6244493;22;20011;-84
2023/03/17 05:40:34;;;;;;;5.68;1.83;;;6.70;99.90;;;;;;6243812;23;20027;-85
2023/03/17 05:43:00;;;;;;;5.88;2.13;;;6.70;99.90;;;;;;6218339;23;20044;-84
2023/03/17 05:45:27;;;;;;;6.00;2.00;;;6.60;99.90;;;;;;6218217;23;20043;-85
2023/03/17 05:47:52;;;;;;;5.85;1.83;;;6.60;99.90;;;;;;6218593;23;20334;-85
2023/03/17 05:50:18;;;;;;;5.97;2.03;;;6.60;99.90;;;;;;6217795;23;20050;-85
2023/03/17 05:52:44;;;;;;;5.55;2.10;;;6.60;99.90;;;;;;6217008;23;20087;-85
2023/03/17 05:55:10;;;;;;;6.22;2.50;;;6.60;99.90;;;;;;6217322;23;20054;-84
2023/03/17 05:57:36;;;;;;;5.05;2.28;;;6.50;99.90;;;;;;6218003;23;20040;-86
2023/03/17 06:00:04;;;;;;;8.48;3.38;;;6.50;99.90;;;;;;6215177;23;20004;-85
2023/03/17 06:02:30;;;;;;;6.85;2.92;;;6.60;99.90;;;;;;6216035;23;20000;-85
2023/03/17 06:04:56;;;;;;;5.78;2.08;;;6.60;99.90;;;;;;6218339;23;20016;-85
2023/03/17 06:07:22;;;;;;;6.43;2.40;;;6.60;99.90;;;;;;6216573;23;20050;-85
2023/03/17 06:09:47;;;;;;;5.88;2.60;;;6.50;99.90;;;;;;6218503;23;20004;-85
2023/03/17 06:12:13;;;;;;;13.70;2.78;;;6.50;99.90;;;;;;6216414;23;20000;-85
2023/03/17 06:14:38;;;;;;;8.20;3.00;;;6.50;99.90;;;;;;6216914;23;20046;-85
2023/03/17 06:17:05;;;;;;;4.80;2.70;;;6.50;99.90;;;;;;6217542;23;20001;-85
2023/03/17 06:19:30;;;;;;;9.18;3.15;;;6.50;99.90;;;;;;6217311;23;20058;-85
2023/03/17 06:21:56;;;;;;;5.65;2.40;;;6.50;99.90;;;;;;6218275;23;20335;-85
2023/03/17 06:24:21;;;;;;;9.63;4.35;;;6.50;99.90;;;;;;6216456;23;20379;-85
2023/03/17 06:26:47;;;;;;;8.70;3.03;;;6.50;99.90;;;;;;6215975;23;20018;-85
2023/03/17 06:29:12;;;;;;;6.05;2.90;;;6.50;99.90;;;;;;6215649;23;20489;-85
2023/03/17 06:31:39;;;;;;;4.70;2.63;;;6.50;99.90;;;;;;6242164;23;20011;-85
2023/03/17 06:34:05;;;;;;;7.35;2.92;;;6.50;99.90;;;;;;6217820;23;20011;-86
2023/03/17 06:36:31;;;;;;;8.27;2.75;;;6.50;99.90;;;;;;6217791;23;20000;-84
2023/03/17 06:38:58;;;;;;;5.45;2.72;;;6.50;99.90;;;;;;6215058;23;20008;-85
2023/03/17 06:41:24;;;;;;;6.63;2.38;;;6.50;99.90;;;;;;6221888;22;20020;-85
2023/03/17 06:43:50;;;;;;;9.20;3.28;;;6.60;99.90;;;;;;6238395;23;20023;-86
2023/03/17 06:46:16;;;;;;;6.97;2.33;;;6.60;99.90;;;;;;6240179;23;20012;-86
2023/03/17 06:48:42;;;;;;;6.28;2.65;;;6.60;99.90;;;;;;6240457;23;20479;-85
2023/03/17 06:51:08;;;;;;;7.20;2.58;;;6.70;99.90;;;;;;6239984;23;20422;-85
2023/03/17 06:53:33;;;;;;;5.22;3.20;;;6.80;99.90;;;;;;6241300;22;20000;-86
2023/03/17 06:55:59;;;;;;;6.93;2.65;;;6.80;99.90;;;;;;6240147;23;20065;-85
2023/03/17 06:58:24;;;;;;;6.07;2.50;;;6.90;99.90;;;;;;6242081;22;20399;-85
2023/03/17 07:00:52;;;;;;;6.93;2.50;;;7.00;99.90;;;;;;6242177;23;20016;-85
2023/03/17 07:03:19;;;;;;;4.95;2.30;;;7.00;99.90;;;;;;6241740;22;20018;-85
2023/03/17 07:05:45;;;;;;;6.35;2.58;;;7.20;99.90;;;;;;6243123;23;20012;-86
2023/03/17 07:08:11;;;;;;;6.60;2.63;;;7.20;99.90;;;;;;6242401;22;20008;-86
2023/03/17 07:10:37;;;;;;;4.43;2.47;;;7.30;99.90;;;;;;6242180;23;20375;-86
2023/03/17 07:13:04;;;;;;;6.55;3.10;;;7.40;99.90;;;;;;6241162;23;20011;-85
2023/03/17 07:15:34;;;;;;;5.95;2.47;;;7.50;99.90;;;;;;6243573;22;20008;-85
2023/03/17 07:18:00;;;;;;;5.90;2.45;;;7.60;99.90;;;;;;6241955;23;20083;-85
2023/03/17 07:20:26;;;;;;;5.90;2.60;;;7.70;99.90;;;;;;6243670;22;20004;-86
2023/03/17 07:22:51;;;;;;;4.80;2.78;;;7.80;99.90;;;;;;6243257;23;20511;-86
2023/03/17 07:25:17;;;;;;;7.78;2.63;;;7.90;99.90;;;;;;6243598;22;20447;-86
2023/03/17 07:27:42;;;;;;;5.30;2.55;;;8.00;99.90;;;;;;6244192;23;20073;-86
2023/03/17 07:30:09;;;;;;;8.55;2.90;;;8.10;99.90;;;;;;6242431;23;20362;-86
2023/03/17 07:32:35;;;;;;;4.00;2.08;;;8.20;99.90;;;;;;6242983;23;20048;-85
2023/03/17 07:35:00;;;;;;;4.90;2.33;;;8.30;99.90;;;;;;6241532;22;20007;-86
2023/03/17 07:37:26;;;;;;;5.03;2.55;;;8.40;99.90;;;;;;6242205;23;20008;-85
2023/03/17 07:39:51;;;;;;;6.47;2.30;;;8.50;99.90;;;;;;6242106;22;20053;-85
2023/03/17 07:42:17;;;;;;;8.23;2.35;;;8.50;99.90;;;;;;6241804;22;20023;-85
2023/03/17 07:44:43;;;;;;;8.05;2.55;;;8.60;99.90;;;;;;6241066;22;20052;-86
2023/03/17 07:47:10;;;;;;;5.38;2.45;;;8.70;99.90;;;;;;6244418;23;20004;-86
2023/03/17 07:49:36;;;;;;;5.88;2.60;;;8.80;99.90;;;;;;6241830;22;20668;-86
2023/03/17 07:52:02;;;;;;;8.18;1.85;;;8.90;99.90;;;;;;6244161;23;20442;-86
2023/03/17 07:54:28;;;;;;;7.43;2.50;;;8.90;99.90;;;;;;6243340;23;20004;-86
2023/03/17 07:56:54;;;;;;;7.43;2.40;;;9.00;99.90;;;;;;6242905;23;20024;-86
2023/03/17 07:59:20;;;;;;;7.30;2.55;;;9.10;99.90;;;;;;6243084;23;20036;-86
2023/03/17 08:01:45;;;;;;;5.80;1.80;;;9.10;99.90;;;;;;6243244;23;20484;-86
2023/03/17 08:04:12;;;;;;;5.15;2.03;;;9.20;99.90;;;;;;6242688;23;20044;-86
2023/03/17 08:06:40;;;;;;;5.10;2.35;;;9.30;99.90;;;;;;6243019;23;20008;-86
2023/03/17 08:09:06;;;;;;;6.78;2.35;;;9.40;99.90;;;;;;6245523;22;20425;-86
2023/03/17 08:11:32;;;;;;;8.38;2.35;;;9.40;99.90;;;;;;6246798;22;19996;-86
2023/03/17 08:13:58;;;;;;;5.07;2.20;;;9.50;99.90;;;;;;6245260;23;20004;-86
2023/03/17 08:16:24;;;;;;;7.20;2.10;;;9.60;99.90;;;;;;6244788;23;20004;-86
2023/03/17 08:18:50;;;;;;;4.88;1.83;;;9.70;99.90;;;;;;6245325;23;20034;-86
2023/03/17 08:21:16;;;;;;;5.38;2.08;;;9.80;99.90;;;;;;6245011;23;20032;-86
2023/03/17 08:23:42;;;;;;;3.83;2.15;;;9.90;99.90;;;;;;6245000;23;20087;-86
2023/03/17 08:26:07;;;;;;;5.45;1.60;;;9.90;99.90;;;;;;6244450;23;20015;-86
2023/03/17 08:28:34;;;;;;;4.65;2.10;;;10.00;99.90;;;;;;6243563;22;20004;-86
2023/03/17 08:31:12;;;;;;;6.63;2.03;;;10.10;99.90;;;;;;6244583;23;20049;-86
2023/03/17 08:33:38;;;;;;;5.72;1.85;;;10.10;99.90;;;;;;6245329;23;20004;-86
2023/03/17 08:36:08;;;;;;;6.80;2.28;;;10.10;99.90;;;;;;6244700;23;20018;-86
2023/03/17 08:38:34;;;;;;;7.50;1.90;;;10.20;99.90;;;;;;6246458;22;20000;-86
2023/03/17 08:41:02;;;;;;;6.15;1.90;;;10.20;99.90;;;;;;6245729;22;20007;-86
2023/03/17 08:43:27;;;;;;;4.57;2.00;;;10.20;99.90;;;;;;6219326;23;20085;-86
2023/03/17 08:46:05;;;;;;;8.85;2.28;;;10.30;99.90;;;;;;6219037;23;20410;-87
2023/03/17 08:48:32;;;;;;;6.20;1.80;;;10.30;99.90;;;;;;6219393;23;20008;-87
2023/03/17 08:50:57;;;;;;;5.85;1.88;;;10.40;99.90;;;;;;6219225;23;20004;-86
2023/03/17 08:53:24;;;;;;;5.82;1.85;;;10.40;99.90;;;;;;6219076;23;20000;-86
2023/03/17 08:55:49;;;;;;;4.38;1.88;;;10.50;99.90;;;;;;6220489;23;20124;-86
2023/03/17 08:58:16;;;;;;;10.50;2.40;;;10.60;99.90;;;;;;6218344;23;20039;-86
2023/03/17 09:00:41;;;;;;;9.02;1.80;;;10.70;99.90;;;;;;6218997;23;20012;-86
2023/03/17 09:03:07;;;;;;;4.75;1.30;;;10.80;99.90;;;;;;6218980;23;20078;-86
2023/03/17 09:05:33;;;;;;;4.22;1.58;;;10.90;99.90;;;;;;6218412;23;20509;-86
2023/03/17 09:07:58;;;;;;;3.38;1.70;;;11.00;99.90;;;;;;6219105;23;20028;-86
2023/03/17 09:10:24;;;;;;;4.15;1.85;;;11.10;99.90;;;;;;6246071;23;20007;-85
2023/03/17 09:12:50;;;;;;;6.75;1.40;;;11.10;99.90;;;;;;6219626;23;20004;-86
2023/03/17 09:15:16;;;;;;;4.47;1.75;;;11.20;99.90;;;;;;6218738;23;20091;-86
2023/03/17 09:17:42;;;;;;;4.43;1.50;;;11.30;99.90;;;;;;6219272;23;20033;-86
2023/03/17 09:20:12;;;;;;;3.17;1.55;;;11.30;99.90;;;;;;6218848;23;20347;-85
2023/03/17 09:22:38;;;;;;;5.63;1.65;;;11.40;99.90;;;;;;6218969;23;20054;-86
2023/03/17 09:25:04;;;;;;;4.22;1.20;;;11.50;99.90;;;;;;6218558;23;20020;-86
2023/03/17 09:27:29;;;;;;;3.03;1.13;;;11.60;99.90;;;;;;6218938;23;20423;-85
2023/03/17 09:29:55;;;;;;;3.85;1.77;;;11.70;99.90;;;;;;6219486;23;20430;-86
2023/03/17 09:32:21;;;;;;;6.13;1.90;;;11.80;99.90;;;;;;6219175;23;20004;-87
2023/03/17 09:34:47;;;;;;;2.42;1.23;;;11.90;99.90;;;;;;6219733;23;20015;-86
2023/03/17 09:37:12;;;;;;;6.35;1.67;;;12.10;99.90;;;;;;6218756;23;20419;-86
2023/03/17 09:39:38;;;;;;;4.35;1.50;;;12.20;99.90;;;;;;6219320;23;20004;-86
2023/03/17 09:42:25;;;;;;;5.85;1.85;;;12.40;99.90;;;;;;6228793;23;20019;-86
2023/03/17 09:45:12;;;;;;;2.70;1.10;;;12.50;99.90;;;;;;6243991;23;20339;-86
2023/03/17 09:48:03;;;;;;;7.75;1.88;;;12.70;99.90;;;;;;6244080;23;20390;-86
2023/03/17 09:50:45;;;;;;;3.30;1.65;;;12.80;99.90;;;;;;6244437;23;20001;-85
2023/03/17 09:53:26;;;;;;;6.43;1.75;;;13.00;99.90;;;;;;6244596;22;20007;-86
2023/03/17 09:55:55;;;;;;;5.60;1.85;;;13.10;99.90;;;;;;6245798;22;20058;-85
2023/03/17 09:58:28;;;;;;;2.53;1.15;;;13.20;99.90;;;;;;6243668;23;20011;-86
2023/03/17 10:00:53;;;;;;;4.15;1.70;;;13.30;99.90;;;;;;6244116;23;20109;-86
2023/03/17 10:03:19;;;;;;;4.30;1.83;;;13.30;99.90;;;;;;6243606;23;20431;-86
2023/03/17 10:05:45;;;;;;;2.63;1.23;;;13.40;99.90;;;;;;6243999;23;20096;-86
2023/03/17 10:08:32;;;;;;;5.45;1.45;;;13.50;99.90;;;;;;6243673;23;20004;-86
2023/03/17 10:11:25;;;;;;;4.05;2.00;;;13.50;99.90;;;;;;6243475;23;20035;-87
2023/03/17 10:14:15;;;;;;;3.88;1.48;;;13.50;99.90;;;;;;6243682;23;20012;-87
2023/03/17 10:16:53;;;;;;;4.57;2.20;;;13.50;99.90;;;;;;6243623;23;20095;-86
2023/03/17 10:19:51;;;;;;;4.00;1.83;;;13.60;99.90;;;;;;6243442;23;20035;-86
2023/03/17 10:22:27;;;;;;;3.08;1.42;;;13.70;99.90;;;;;;6242921;23;20035;-86
2023/03/17 10:25:04;;;;;;;4.32;1.92;;;13.90;99.90;;;;;;6243534;23;20096;-87
2023/03/17 10:27:35;;;;;;;4.82;1.88;;;14.10;99.90;;;;;;6243215;23;20050;-86
2023/03/17 10:30:00;;;;;;;4.40;1.83;;;14.20;99.90;;;;;;6243421;23;20040;-86
2023/03/17 10:32:28;;;;;;;5.88;2.45;;;14.30;99.90;;;;;;6243030;23;20000;-86
2023/03/17 10:34:54;;;;;;;5.25;1.58;;;14.40;99.90;;;;;;6243723;23;20464;-86
2023/03/17 10:37:22;;;;;;;4.10;1.67;;;14.50;99.90;;;;;;6243399;23;20195;-86
2023/03/17 10:39:51;;;;;;;4.55;2.13;;;14.70;99.90;;;;;;6243739;23;20014;-86
2023/03/17 10:42:21;;;;;;;4.00;1.70;;;14.70;99.90;;;;;;6243125;23;20020;-87
2023/03/17 10:44:56;;;;;;;6.28;2.03;;;14.80;99.90;;;;;;6242868;22;20039;-86
2023/03/17 10:47:23;;;;;;;7.50;1.95;;;14.90;99.90;;;;;;6242953;23;20004;-86
2023/03/17 10:49:50;;;;;;;6.55;2.35;;;15.00;99.90;;;;;;6243689;23;20083;-86
2023/03/17 10:52:21;;;;;;;6.82;1.80;;;15.00;99.90;;;;;;6243940;23;20130;-86
2023/03/17 10:54:48;;;;;;;7.05;2.08;;;15.10;99.80;;;;;;6243577;23;20004;-86
2023/03/17 10:57:14;;;;;;;4.88;2.33;;;15.10;99.80;;;;;;6242746;22;20004;-86
2023/03/17 10:59:49;;;;;;;6.53;1.98;;;15.30;99.70;;;;;;6243478;23;20030;-87
2023/03/17 11:02:34;;;;;;;3.97;1.63;;;15.40;99.00;;;;;;6242997;23;20005;-87
2023/03/17 11:05:21;;;;;;;5.68;2.22;;;15.50;99.00;;;;;;5064762;28;20766;-70
2023/03/17 11:07:48;;;;;;;5.72;1.95;;;15.70;99.00;;;;;;5064024;28;20027;-69
2023/03/17 11:10:22;;;;;;;9.55;3.15;;;15.80;98.80;;;;;;5066252;28;20032;-69
2023/03/17 11:13:02;;;;;;;7.30;2.22;;;16.10;98.60;;;;;;5050957;28;20025;-70
2023/03/17 11:15:33;;;;;;;5.15;1.80;;;16.20;97.60;;;;;;5067573;28;20481;-69
2023/03/17 11:18:11;;;;;;;6.47;1.88;;;16.40;96.70;;;;;;5067992;28;20028;-70
2023/03/17 11:21:06;;;;;;;3.85;1.75;;;16.50;96.50;;;;;;5059236;28;20028;-70
2023/03/17 11:23:58;;;;;;;5.72;1.77;;;16.60;95.80;;;;;;5059851;28;20492;-70
2023/03/17 11:26:37;;;;;;;5.35;2.10;;;16.70;95.30;;;;;;5051309;28;20222;-69
2023/03/17 11:29:26;;;;;;;3.88;1.77;;;16.80;94.90;;;;;;5063262;28;20025;-69
2023/03/17 11:32:10;;;;;;;4.30;1.88;;;16.90;94.40;;;;;;5057255;28;20469;-69
2023/03/17 11:35:13;;;;;;;4.07;1.67;;;16.90;94.10;;;;;;5063973;28;20040;-70
2023/03/17 11:38:18;;;;;;;4.35;1.50;;;16.90;94.20;;;;;;5054194;28;20025;-69
2023/03/17 11:41:14;;;;;;;4.57;1.58;;;17.00;93.90;;;;;;5061053;28;20056;-70
2023/03/17 11:43:52;;;;;;;4.55;2.35;;;17.20;93.50;;;;;;5067011;28;20104;-70
2023/03/17 11:46:35;;;;;;;6.82;2.05;;;17.20;93.20;;;;;;5052806;28;20040;-70
2023/03/17 11:49:09;;;;;;;6.45;1.77;;;17.20;92.50;;;;;;5062161;28;20554;-70
2023/03/17 11:52:04;;;;;;;6.00;1.60;;;17.30;92.70;;;;;;5051466;28;20672;-69
2023/03/17 11:54:56;;;;;;;8.65;1.50;;;17.40;92.20;;;;;;5069431;28;20080;-69
2023/03/17 11:58:00;;;;;;;7.13;2.25;;;17.30;91.70;;;;;;5060377;28;20028;-69
2023/03/17 12:00:33;;;;;;;5.28;1.60;;;17.20;91.10;;;;;;5063300;28;20036;-69
2023/03/17 12:03:21;;;;;;;5.95;1.60;;;17.10;91.20;;;;;;5063215;28;20033;-69
2023/03/17 12:05:50;;;;;;;6.50;1.60;;;17.30;91.10;;;;;;5063699;28;20104;-69
2023/03/17 12:08:28;;;;;;;4.88;1.45;;;17.30;90.70;;;;;;5061679;28;20021;-69
2023/03/17 12:10:57;;;;;;;4.95;2.05;;;17.20;90.90;;;;;;5058937;28;20028;-69
2023/03/17 12:13:31;;;;;;;7.53;2.00;;;17.30;91.40;;;;;;5053517;28;20025;-69
2023/03/17 12:16:25;;;;;;;5.28;2.15;;;17.60;91.40;;;;;;5056660;28;20078;-69
2023/03/17 12:19:03;;;;;;;6.35;1.90;;;17.70;90.90;;;;;;5046911;28;20055;-69
2023/03/17 12:21:33;;;;;;;4.45;1.67;;;17.90;90.60;;;;;;5035639;28;20084;-70
2023/03/17 12:24:19;;;;;;;4.28;1.73;;;17.90;90.20;;;;;;5045786;28;20132;-69
2023/03/17 12:27:02;;;;;;;6.07;1.67;;;18.10;89.80;;;;;;5051376;28;20096;-69
2023/03/17 12:29:38;;;;;;;6.38;2.97;;;18.10;88.70;;;;;;5052379;28;20056;-69
2023/03/17 12:32:11;;;;;;;6.40;2.00;;;18.10;87.70;;;;;;5048073;28;20051;-70
2023/03/17 12:34:44;;;;;;;;;;;18.10;87.60;;;;;;5066927;28;20036;-69
2023/03/17 12:37:11;;;;;;;5.15;2.00;;;18.20;88.20;;;;;;5047534;28;19962;-70
2023/03/17 12:39:41;;;;;;;5.50;2.00;;;18.10;87.40;;;;;;5047740;28;20025;-70
2023/03/17 12:42:21;;;;;;;5.30;2.08;;;18.10;87.60;;;;;;5046530;28;20033;-71
2023/03/17 12:45:17;;;;;;;6.70;2.10;;;18.20;87.30;;;;;;5044402;28;20774;-70
2023/03/17 12:48:13;;;;;;;4.20;1.88;;;18.20;87.10;;;;;;5043773;28;20523;-71
2023/03/17 12:51:13;;;;;;;5.47;1.80;;;18.40;86.50;;;;;;5044580;28;20025;-70
2023/03/17 12:53:41;;;;;;;5.55;2.38;;;18.50;86.40;;;;;;5045073;28;20399;-71
2023/03/17 12:56:19;;;;;;;10.50;1.70;;;18.60;85.70;;;;;;5036907;28;20024;-70
2023/03/17 12:58:48;;;;;;;6.95;2.22;;;18.80;84.90;;;;;;5057242;28;20034;-70
2023/03/17 13:01:36;;;;;;;9.82;1.92;;;18.80;84.40;;;;;;5044690;28;21957;-71
2023/03/17 13:04:27;;;;;;;5.80;2.17;;;19.00;84.10;;;;;;5049038;28;20057;-71
2023/03/17 13:07:17;;;;;;;4.05;2.28;;;19.10;83.30;;;;;;5048702;28;20036;-71